createdAt,value
2022-07-29T00:02:00.005Z,294.88
2022-07-29T00:04:27.673Z,337.60
2022-07-29T00:06:55.288Z,372.77
2022-07-29T00:09:23.013Z,392.00
2022-07-29T00:11:50.737Z,378.77
2022-07-29T00:14:18.770Z,381.30
2022-07-29T00:16:46.595Z,378.67
2022-07-29T00:19:14.326Z,335.00
2022-07-29T00:21:41.933Z,314.73
2022-07-29T00:24:09.686Z,365.85
2022-07-29T00:26:37.147Z,323.53
2022-07-29T00:29:32.938Z,368.52
2022-07-29T00:31:53.753Z,321.08
2022-07-29T00:34:39.983Z,303.70
2022-07-29T00:37:07.874Z,403.98
2022-07-29T00:39:35.620Z,383.50
2022-07-29T00:42:06.927Z,303.67
2022-07-29T00:44:39.291Z,325.17
2022-07-29T00:47:07.826Z,310.00
2022-07-29T00:49:36.276Z,273.65
2022-07-29T00:52:08.060Z,291.45
2022-07-29T00:54:43.929Z,367.98
2022-07-29T00:57:13.462Z,312.27
2022-07-29T00:59:41.436Z,301.23
2022-07-29T01:02:09.119Z,306.15
2022-07-29T01:04:37.027Z,275.73
2022-07-29T01:07:05.460Z,338.75
2022-07-29T01:09:40.810Z,322.45
2022-07-29T01:12:26.863Z,289.20
2022-07-29T01:14:56.633Z,313.83
2022-07-29T01:17:33.648Z,351.93
2022-07-29T01:20:31.614Z,368.80
2022-07-29T01:23:08.527Z,292.70
2022-07-29T01:26:13.614Z,359.13
2022-07-29T01:29:26.082Z,332.50
2022-07-29T01:32:02.089Z,232.73
2022-07-29T01:34:32.756Z,320.45
2022-07-29T01:37:26.947Z,301.73
2022-07-29T01:39:57.591Z,420.55
2022-07-29T01:42:37.515Z,363.60
2022-07-29T01:45:13.709Z,348.13
2022-07-29T01:47:51.985Z,360.15
2022-07-29T01:50:22.550Z,326.02
2022-07-29T01:52:59.807Z,345.27
2022-07-29T01:55:32.495Z,307.60
2022-07-29T01:58:02.153Z,370.35
2022-07-29T02:00:33.042Z,358.15
2022-07-29T02:03:06.665Z,376.60
2022-07-29T02:05:35.681Z,341.92
2022-07-29T02:08:05.500Z,348.83
2022-07-29T02:10:35.776Z,323.98
2022-07-29T02:13:05.055Z,331.60
2022-07-29T02:15:35.470Z,288.73
2022-07-29T02:18:08.969Z,348.23
2022-07-29T02:20:39.047Z,364.90
2022-07-29T02:23:08.137Z,300.48
2022-07-29T02:25:38.060Z,331.65
2022-07-29T02:28:08.810Z,355.33
2022-07-29T02:30:43.068Z,331.75
2022-07-29T02:33:14.740Z,325.13
2022-07-29T02:35:44.234Z,342.67
2022-07-29T02:38:34.096Z,348.13
2022-07-29T02:41:14.797Z,312.38
2022-07-29T02:43:46.246Z,358.60
2022-07-29T02:46:29.253Z,314.05
2022-07-29T02:49:17.295Z,341.02
2022-07-29T02:51:48.437Z,324.75
2022-07-29T02:54:32.859Z,236.20
2022-07-29T02:57:08.027Z,318.25
2022-07-29T02:59:39.093Z,329.67
2022-07-29T03:02:08.344Z,336.85
2022-07-29T03:04:37.237Z,352.05
2022-07-29T03:07:06.248Z,290.85
2022-07-29T03:09:34.547Z,329.20
2022-07-29T03:12:05.261Z,325.33
2022-07-29T03:14:33.246Z,299.07
2022-07-29T03:17:01.286Z,343.05
2022-07-29T03:19:29.479Z,342.80
2022-07-29T03:21:58.816Z,354.23
2022-07-29T03:24:31.733Z,280.08
2022-07-29T03:26:59.911Z,298.80
2022-07-29T03:29:33.722Z,289.08
2022-07-29T03:32:07.309Z,351.30
2022-07-29T03:34:38.302Z,394.75
2022-07-29T03:37:07.403Z,321.13
2022-07-29T03:39:40.694Z,293.65
2022-07-29T03:42:12.246Z,322.60
2022-07-29T03:44:43.244Z,346.40
2022-07-29T03:47:12.210Z,328.10
2022-07-29T03:49:41.602Z,253.57
2022-07-29T03:52:10.148Z,268.60
2022-07-29T03:54:37.813Z,352.08
2022-07-29T03:57:08.286Z,300.40
2022-07-29T03:59:36.546Z,281.00
2022-07-29T04:02:05.894Z,299.87
2022-07-29T04:04:36.684Z,289.13
2022-07-29T04:07:05.015Z,278.08
2022-07-29T04:09:34.063Z,301.45
2022-07-29T04:12:04.349Z,241.25
2022-07-29T04:14:35.933Z,215.80
2022-07-29T04:17:05.152Z,275.75
2022-07-29T04:19:33.882Z,287.73
2022-07-29T04:22:02.215Z,248.60
2022-07-29T04:24:30.028Z,240.52
2022-07-29T04:26:57.736Z,324.38
2022-07-29T04:29:25.318Z,257.40
2022-07-29T04:31:53.010Z,288.17
2022-07-29T04:34:20.898Z,260.77
2022-07-29T04:36:48.732Z,250.98
2022-07-29T04:39:22.195Z,222.95
2022-07-29T04:41:52.403Z,261.67
2022-07-29T04:44:20.136Z,250.85
2022-07-29T04:46:47.843Z,272.50
2022-07-29T04:49:15.577Z,213.90
2022-07-29T04:51:44.455Z,247.85
2022-07-29T04:54:12.007Z,230.00
2022-07-29T04:56:39.561Z,223.18
2022-07-29T04:59:07.031Z,245.13
2022-07-29T05:01:34.990Z,252.80
2022-07-29T05:04:02.620Z,246.75
2022-07-29T05:06:31.131Z,249.60
2022-07-29T05:08:58.737Z,259.40
2022-07-29T05:11:30.241Z,257.60
2022-07-29T05:13:58.162Z,274.30
2022-07-29T05:16:25.797Z,219.07
2022-07-29T05:18:53.504Z,288.58
2022-07-29T05:21:21.048Z,255.03
2022-07-29T05:23:48.622Z,260.92
2022-07-29T05:26:16.114Z,217.38
2022-07-29T05:28:43.731Z,205.20
2022-07-29T05:31:11.276Z,226.30
2022-07-29T05:33:38.906Z,212.95
2022-07-29T05:36:09.618Z,169.70
2022-07-29T05:38:37.648Z,185.73
2022-07-29T05:41:06.405Z,212.77
2022-07-29T05:43:34.147Z,240.13
2022-07-29T05:46:01.735Z,228.40
2022-07-29T05:48:29.717Z,212.13
2022-07-29T05:50:57.373Z,176.57
2022-07-29T05:53:25.103Z,220.70
2022-07-29T05:55:53.401Z,211.93
2022-07-29T05:58:21.597Z,165.52
2022-07-29T06:00:49.080Z,190.90
2022-07-29T06:03:17.026Z,170.75
2022-07-29T06:05:44.502Z,206.55
2022-07-29T06:08:12.199Z,242.05
2022-07-29T06:10:39.889Z,201.32
2022-07-29T06:13:07.502Z,206.60
2022-07-29T06:15:35.328Z,184.25
2022-07-29T06:18:03.460Z,202.02
2022-07-29T06:20:32.659Z,157.40
2022-07-29T06:23:01.588Z,180.18
2022-07-29T06:25:33.492Z,176.13
2022-07-29T06:28:01.004Z,168.95
2022-07-29T06:30:29.894Z,160.25
2022-07-29T06:32:57.545Z,164.02
2022-07-29T06:35:39.385Z,237.25
2022-07-29T06:38:30.034Z,159.48
2022-07-29T06:41:04.174Z,161.68
2022-07-29T06:43:35.186Z,173.98
2022-07-29T06:46:08.228Z,160.23
2022-07-29T06:48:39.879Z,162.38
2022-07-29T06:51:07.861Z,137.47
2022-07-29T06:53:36.061Z,176.88
2022-07-29T06:56:05.710Z,159.65
2022-07-29T06:58:33.357Z,213.52
2022-07-29T07:01:04.489Z,167.70
2022-07-29T07:03:32.243Z,146.27
2022-07-29T07:06:00.252Z,150.73
2022-07-29T07:08:28.029Z,153.57
2022-07-29T07:10:56.375Z,132.93
2022-07-29T07:13:24.811Z,148.18
2022-07-29T07:15:53.128Z,182.82
2022-07-29T07:18:20.903Z,194.00
2022-07-29T07:20:48.814Z,123.93
2022-07-29T07:23:16.440Z,168.10
2022-07-29T07:25:44.100Z,204.88
2022-07-29T07:28:11.802Z,146.55
2022-07-29T07:30:39.411Z,119.95
2022-07-29T07:33:07.077Z,134.95
2022-07-29T07:35:34.811Z,137.45
2022-07-29T07:38:02.604Z,110.72
2022-07-29T07:40:30.114Z,151.02
2022-07-29T07:42:58.149Z,173.65
2022-07-29T07:45:25.888Z,179.27
2022-07-29T07:47:53.529Z,157.45
2022-07-29T07:50:21.117Z,134.25
2022-07-29T07:52:54.492Z,89.63
2022-07-29T07:55:22.476Z,142.73
2022-07-29T07:57:50.171Z,134.57
2022-07-29T08:00:18.906Z,157.45
2022-07-29T08:02:51.399Z,95.03
2022-07-29T08:05:19.609Z,111.53
2022-07-29T08:07:48.492Z,107.75
2022-07-29T08:10:37.799Z,132.80
2022-07-29T08:13:10.072Z,94.10
2022-07-29T08:15:37.718Z,74.72
2022-07-29T08:18:08.721Z,106.30
2022-07-29T08:20:39.482Z,100.68
2022-07-29T08:23:09.865Z,100.93
2022-07-29T08:25:40.115Z,72.97
2022-07-29T08:28:08.209Z,106.18
2022-07-29T08:30:36.191Z,108.80
2022-07-29T08:33:04.604Z,117.10
2022-07-29T08:35:35.181Z,87.88
2022-07-29T08:38:04.734Z,72.80
2022-07-29T08:40:33.727Z,123.32
2022-07-29T08:43:09.749Z,104.60
2022-07-29T08:45:50.115Z,82.25
2022-07-29T08:48:22.434Z,74.38
2022-07-29T08:50:54.568Z,72.13
2022-07-29T08:53:24.636Z,72.20
2022-07-29T08:55:56.802Z,59.25
2022-07-29T08:58:27.741Z,88.78
2022-07-29T09:00:58.343Z,61.25
2022-07-29T09:03:34.592Z,60.13
2022-07-29T09:06:04.177Z,72.77
2022-07-29T09:08:38.651Z,98.90
2022-07-29T09:11:10.054Z,103.43
2022-07-29T09:13:38.978Z,72.00
2022-07-29T09:16:09.585Z,120.33
2022-07-29T09:18:48.685Z,68.75
2022-07-29T09:21:38.595Z,96.03
2022-07-29T09:24:18.393Z,104.35
2022-07-29T09:26:49.701Z,81.57
2022-07-29T09:29:21.556Z,104.27
2022-07-29T09:31:56.621Z,88.83
2022-07-29T09:34:34.313Z,88.07
2022-07-29T09:37:08.748Z,85.05
2022-07-29T09:39:49.810Z,75.63
2022-07-29T09:42:34.705Z,107.50
2022-07-29T09:45:05.278Z,72.63
2022-07-29T09:47:55.315Z,92.77
2022-07-29T09:50:37.447Z,124.97
2022-07-29T09:53:05.288Z,87.57
2022-07-29T09:55:33.176Z,91.90
2022-07-29T09:58:29.427Z,75.05
2022-07-29T10:00:59.510Z,107.05
2022-07-29T10:03:27.535Z,90.65
2022-07-29T10:06:09.683Z,102.43
2022-07-29T10:08:38.182Z,102.75
2022-07-29T10:11:19.703Z,63.08
2022-07-29T10:13:49.257Z,66.18
2022-07-29T10:16:18.211Z,73.82
2022-07-29T10:18:48.145Z,55.00
2022-07-29T10:21:34.980Z,84.38
2022-07-29T10:24:03.762Z,86.75
2022-07-29T10:26:33.283Z,89.53
2022-07-29T10:29:03.359Z,63.08
2022-07-29T10:31:53.715Z,82.03
2022-07-29T10:35:05.690Z,116.07
2022-07-29T10:37:55.080Z,96.72
2022-07-29T10:41:08.641Z,106.10
2022-07-29T10:43:42.346Z,71.07
2022-07-29T10:46:13.060Z,116.88
2022-07-29T10:49:18.930Z,64.70
2022-07-29T10:52:13.509Z,96.50
2022-07-29T10:54:47.952Z,117.80
2022-07-29T10:57:16.256Z,63.40
2022-07-29T10:59:50.403Z,75.53
2022-07-29T11:02:46.525Z,111.40
2022-07-29T11:05:20.418Z,77.40
2022-07-29T11:08:21.064Z,99.10
2022-07-29T11:11:15.871Z,87.20
2022-07-29T11:13:46.562Z,126.25
2022-07-29T11:16:16.832Z,82.47
2022-07-29T11:19:16.356Z,57.67
2022-07-29T11:21:58.223Z,57.08
2022-07-29T11:24:32.391Z,69.07
2022-07-29T11:27:23.661Z,108.55
2022-07-29T11:29:58.731Z,110.60
2022-07-29T11:32:41.722Z,76.03
2022-07-29T11:35:17.573Z,117.95
2022-07-29T11:38:05.892Z,88.40
2022-07-29T11:40:33.633Z,91.07
2022-07-29T11:43:01.102Z,95.95
2022-07-29T11:45:47.866Z,118.55
2022-07-29T11:48:31.562Z,99.38
2022-07-29T11:51:01.386Z,76.35
2022-07-29T11:53:32.581Z,64.20
2022-07-29T11:56:02.809Z,79.07
2022-07-29T11:58:32.191Z,130.75
2022-07-29T12:01:04.206Z,64.40
2022-07-29T12:03:36.002Z,141.80
2022-07-29T12:07:03.607Z,120.82
2022-07-29T12:09:14.717Z,68.05
2022-07-29T12:11:44.988Z,120.45
2022-07-29T12:14:32.702Z,103.37
2022-07-29T12:17:02.192Z,135.55
2022-07-29T12:19:29.669Z,88.00
2022-07-29T12:22:02.180Z,91.63
2022-07-29T12:24:44.896Z,139.75
2022-07-29T12:27:18.267Z,97.30
2022-07-29T12:29:48.047Z,101.20
2022-07-29T12:32:19.866Z,97.72
2022-07-29T12:34:48.185Z,111.28
2022-07-29T12:37:16.532Z,90.20
2022-07-29T12:39:44.986Z,63.35
2022-07-29T12:42:18.727Z,83.50
2022-07-29T12:44:51.482Z,120.65
2022-07-29T12:47:20.487Z,98.25
2022-07-29T12:49:48.847Z,78.03
2022-07-29T12:52:34.728Z,123.75
2022-07-29T12:55:02.794Z,106.10
2022-07-29T12:57:30.632Z,93.90
2022-07-29T13:00:11.842Z,94.63
2022-07-29T13:02:40.981Z,89.60
2022-07-29T13:05:13.956Z,76.93
2022-07-29T13:07:55.291Z,108.55
2022-07-29T13:10:26.197Z,73.60
2022-07-29T13:13:11.474Z,95.10
2022-07-29T13:15:41.345Z,110.38
2022-07-29T13:18:33.954Z,115.97
2022-07-29T13:21:16.472Z,60.42
2022-07-29T13:23:44.463Z,104.93
2022-07-29T13:26:17.425Z,65.68
2022-07-29T13:28:45.161Z,125.20
2022-07-29T13:31:13.081Z,134.68
2022-07-29T13:33:40.660Z,107.05
2022-07-29T13:36:08.555Z,75.73
2022-07-29T13:38:36.092Z,151.25
2022-07-29T13:41:03.871Z,135.02
2022-07-29T13:43:31.411Z,109.82
2022-07-29T13:45:58.978Z,80.72
2022-07-29T13:48:26.698Z,115.72
2022-07-29T13:50:54.195Z,91.43
2022-07-29T13:53:26.984Z,103.90
2022-07-29T13:55:55.256Z,81.00
2022-07-29T13:58:23.014Z,121.88
2022-07-29T14:00:51.072Z,116.47
2022-07-29T14:03:18.657Z,86.68
2022-07-29T14:05:46.180Z,171.93
2022-07-29T14:08:13.734Z,133.77
2022-07-29T14:10:41.321Z,116.43
2022-07-29T14:13:25.406Z,136.88
2022-07-29T14:15:54.226Z,140.50
2022-07-29T14:18:22.647Z,125.80
2022-07-29T14:20:50.838Z,99.57
2022-07-29T14:23:20.159Z,123.75
2022-07-29T14:25:49.444Z,153.50
2022-07-29T14:28:17.302Z,121.32
2022-07-29T14:30:45.035Z,113.55
2022-07-29T14:33:12.777Z,126.50
2022-07-29T14:35:40.698Z,121.10
2022-07-29T14:38:08.134Z,113.18
2022-07-29T14:40:35.844Z,93.85
2022-07-29T14:43:04.096Z,140.30
2022-07-29T14:45:33.207Z,97.35
2022-07-29T14:48:01.578Z,105.97
2022-07-29T14:50:31.771Z,80.32
2022-07-29T14:53:01.131Z,103.68
2022-07-29T14:55:29.244Z,131.75
2022-07-29T14:58:07.709Z,117.25
2022-07-29T15:00:39.159Z,108.07
2022-07-29T15:03:11.578Z,66.57
2022-07-29T15:05:40.309Z,156.88
2022-07-29T15:08:09.316Z,87.80
2022-07-29T15:10:37.312Z,146.82
2022-07-29T15:13:04.838Z,145.98
2022-07-29T15:15:32.336Z,124.63
2022-07-29T15:17:59.819Z,75.85
2022-07-29T15:20:28.348Z,124.68
2022-07-29T15:22:57.344Z,97.97
2022-07-29T15:25:25.945Z,118.80
2022-07-29T15:28:00.972Z,99.60
2022-07-29T15:30:33.203Z,133.40
2022-07-29T15:33:04.243Z,147.98
2022-07-29T15:35:32.128Z,132.15
2022-07-29T15:37:59.846Z,132.77
2022-07-29T15:40:27.646Z,78.73
2022-07-29T15:42:55.468Z,99.82
2022-07-29T15:45:23.173Z,163.35
2022-07-29T15:47:50.611Z,138.17
2022-07-29T15:50:18.983Z,125.32
2022-07-29T15:52:47.172Z,107.95
2022-07-29T15:55:15.961Z,229.97
2022-07-29T15:57:43.777Z,164.20
2022-07-29T16:00:12.061Z,115.10
2022-07-29T16:02:39.876Z,138.65
2022-07-29T16:05:09.414Z,182.80
2022-07-29T16:07:37.974Z,131.77
2022-07-29T16:10:08.086Z,145.05
2022-07-29T16:12:35.739Z,161.68
2022-07-29T16:15:09.029Z,148.10
2022-07-29T16:17:38.257Z,183.18
2022-07-29T16:20:06.838Z,140.68
2022-07-29T16:22:34.493Z,136.25
2022-07-29T16:25:01.959Z,158.13
2022-07-29T16:27:35.455Z,132.88
2022-07-29T16:30:09.919Z,119.43
2022-07-29T16:32:37.912Z,164.40
2022-07-29T16:35:06.039Z,125.13
2022-07-29T16:37:37.477Z,117.07
2022-07-29T16:40:07.164Z,168.43
2022-07-29T16:42:50.720Z,127.22
2022-07-29T16:45:21.442Z,129.10
2022-07-29T16:47:49.496Z,178.80
2022-07-29T16:50:17.772Z,129.13
2022-07-29T16:52:45.322Z,150.98
2022-07-29T16:55:13.044Z,164.83
2022-07-29T16:57:42.068Z,179.77
2022-07-29T17:00:10.499Z,141.43
2022-07-29T17:02:38.977Z,148.13
2022-07-29T17:05:08.150Z,124.80
2022-07-29T17:07:35.707Z,106.90
2022-07-29T17:10:05.390Z,147.88
2022-07-29T17:12:35.198Z,143.30
2022-07-29T17:15:06.474Z,162.90
2022-07-29T17:17:39.525Z,149.23
2022-07-29T17:20:22.202Z,167.20
2022-07-29T17:22:49.677Z,119.85
2022-07-29T17:25:21.093Z,173.82
2022-07-29T17:27:50.931Z,178.77
2022-07-29T17:30:18.690Z,138.67
2022-07-29T17:32:46.391Z,141.93
2022-07-29T17:35:32.906Z,217.07
2022-07-29T17:38:00.509Z,195.73
2022-07-29T17:40:28.121Z,176.85
2022-07-29T17:42:55.815Z,158.90
2022-07-29T17:45:23.236Z,208.73
2022-07-29T17:47:51.301Z,170.07
2022-07-29T17:50:18.861Z,145.30
2022-07-29T17:52:46.832Z,145.80
2022-07-29T17:55:14.499Z,200.02
2022-07-29T17:57:42.717Z,125.70
2022-07-29T18:00:10.519Z,162.93
2022-07-29T18:02:38.446Z,193.70
2022-07-29T18:05:06.912Z,179.07
2022-07-29T18:07:34.470Z,145.85
2022-07-29T18:10:02.663Z,139.48
2022-07-29T18:12:31.233Z,202.13
2022-07-29T18:14:58.915Z,189.65
2022-07-29T18:17:49.433Z,190.70
2022-07-29T18:20:17.482Z,181.20
2022-07-29T18:22:46.367Z,182.93
2022-07-29T18:25:14.234Z,168.50
2022-07-29T18:27:41.903Z,243.75
2022-07-29T18:30:12.252Z,199.07
2022-07-29T18:32:40.483Z,154.98
2022-07-29T18:35:08.751Z,197.73
2022-07-29T18:38:00.701Z,173.02
2022-07-29T18:40:26.282Z,168.80
2022-07-29T18:42:58.281Z,164.98
2022-07-29T18:45:28.269Z,213.23
2022-07-29T18:47:57.852Z,196.45
2022-07-29T18:50:29.370Z,203.35
2022-07-29T18:53:01.501Z,146.27
2022-07-29T18:55:29.131Z,137.17
2022-07-29T18:57:57.522Z,205.63
2022-07-29T19:00:26.545Z,172.18
2022-07-29T19:02:54.425Z,178.65
2022-07-29T19:05:23.379Z,143.57
2022-07-29T19:07:51.246Z,141.82
2022-07-29T19:10:20.408Z,257.00
2022-07-29T19:12:48.132Z,217.18
2022-07-29T19:15:19.951Z,165.20
2022-07-29T19:17:49.025Z,162.35
2022-07-29T19:20:16.842Z,176.55
2022-07-29T19:22:44.822Z,177.20
2022-07-29T19:25:12.607Z,186.65
2022-07-29T19:27:46.051Z,215.55
2022-07-29T19:30:16.755Z,209.43
2022-07-29T19:32:44.252Z,153.52
2022-07-29T19:35:30.536Z,230.63
2022-07-29T19:38:00.875Z,201.45
2022-07-29T19:40:33.729Z,146.23
2022-07-29T19:43:03.693Z,144.02
2022-07-29T19:45:55.554Z,248.88
2022-07-29T19:48:24.537Z,177.05
2022-07-29T19:50:52.020Z,197.70
2022-07-29T19:53:19.621Z,196.65
2022-07-29T19:55:47.182Z,224.30
2022-07-29T19:58:14.994Z,163.90
2022-07-29T20:00:42.991Z,210.35
2022-07-29T20:03:11.363Z,192.93
2022-07-29T20:05:38.973Z,205.43
2022-07-29T20:08:06.648Z,182.65
2022-07-29T20:10:34.397Z,240.75
2022-07-29T20:13:02.097Z,197.57
2022-07-29T20:15:29.758Z,186.10
2022-07-29T20:17:57.562Z,191.75
2022-07-29T20:20:25.676Z,232.75
2022-07-29T20:22:53.937Z,179.20
2022-07-29T20:25:21.832Z,195.13
2022-07-29T20:27:52.571Z,201.98
2022-07-29T20:30:21.971Z,192.35
2022-07-29T20:32:50.156Z,207.80
2022-07-29T20:35:19.862Z,237.18
2022-07-29T20:37:56.168Z,202.82
2022-07-29T20:40:25.923Z,201.48
2022-07-29T20:42:55.279Z,218.27
2022-07-29T20:45:23.903Z,267.13
2022-07-29T20:47:52.412Z,210.70
2022-07-29T20:50:23.744Z,210.18
2022-07-29T20:52:52.799Z,172.48
2022-07-29T20:55:21.397Z,192.27
2022-07-29T20:57:49.066Z,225.60
2022-07-29T21:00:16.751Z,189.50
2022-07-29T21:02:44.472Z,209.60
2022-07-29T21:05:12.185Z,204.00
2022-07-29T21:07:40.026Z,179.65
2022-07-29T21:10:07.909Z,220.60
2022-07-29T21:12:35.533Z,198.50
2022-07-29T21:15:08.839Z,227.93
2022-07-29T21:17:39.007Z,214.20
2022-07-29T21:20:08.817Z,243.77
2022-07-29T21:22:37.868Z,180.00
2022-07-29T21:25:06.736Z,208.73
2022-07-29T21:27:52.681Z,244.98
2022-07-29T21:30:20.837Z,223.10
2022-07-29T21:32:48.322Z,224.20
2022-07-29T21:35:35.833Z,222.40
2022-07-29T21:38:03.629Z,233.18
2022-07-29T21:40:31.218Z,217.80
2022-07-29T21:42:58.824Z,262.50
2022-07-29T21:45:27.121Z,221.93
2022-07-29T21:47:54.760Z,226.77
2022-07-29T21:50:22.334Z,186.82
2022-07-29T21:52:49.856Z,194.53
2022-07-29T21:55:19.277Z,183.93
2022-07-29T21:57:46.999Z,203.02
2022-07-29T22:00:17.598Z,211.32
2022-07-29T22:02:45.767Z,226.75
2022-07-29T22:05:14.399Z,182.77
2022-07-29T22:07:56.496Z,166.68
2022-07-29T22:10:30.034Z,172.82
2022-07-29T22:12:59.446Z,197.68
2022-07-29T22:15:28.137Z,232.95
2022-07-29T22:17:56.033Z,239.88
2022-07-29T22:20:24.188Z,261.52
2022-07-29T22:22:51.890Z,245.57
2022-07-29T22:25:19.643Z,199.87
2022-07-29T22:27:47.309Z,257.42
2022-07-29T22:30:15.543Z,218.48
2022-07-29T22:32:43.713Z,213.10
2022-07-29T22:35:11.626Z,237.55
2022-07-29T22:37:39.447Z,227.57
2022-07-29T22:40:07.803Z,235.27
2022-07-29T22:42:35.783Z,247.70
2022-07-29T22:45:04.434Z,247.25
2022-07-29T22:47:46.703Z,195.65
2022-07-29T22:50:17.460Z,239.60
2022-07-29T22:52:45.868Z,230.52
2022-07-29T22:55:14.333Z,211.52
2022-07-29T22:57:42.271Z,233.57
2022-07-29T23:00:10.849Z,230.27
2022-07-29T23:02:38.438Z,234.80
2022-07-29T23:05:06.756Z,253.35
2022-07-29T23:07:34.276Z,249.65
2022-07-29T23:10:02.202Z,195.18
2022-07-29T23:12:29.705Z,231.10
2022-07-29T23:14:57.358Z,219.20
2022-07-29T23:17:24.818Z,238.70
2022-07-29T23:19:52.526Z,234.73
2022-07-29T23:22:19.987Z,282.33
2022-07-29T23:24:48.218Z,236.07
2022-07-29T23:27:15.886Z,247.10
2022-07-29T23:29:43.638Z,220.43
2022-07-29T23:32:11.105Z,234.15
2022-07-29T23:34:38.720Z,259.63
2022-07-29T23:37:06.454Z,228.20
2022-07-29T23:39:36.845Z,233.88
2022-07-29T23:42:05.079Z,216.77
2022-07-29T23:44:32.899Z,183.48
2022-07-29T23:47:00.637Z,206.32
2022-07-29T23:49:28.443Z,230.23
2022-07-29T23:51:56.036Z,260.70
2022-07-29T23:54:25.991Z,189.90
2022-07-29T23:56:53.524Z,204.60
2022-07-29T23:59:21.096Z,215.68
